createdAt,value
2022-11-24T00:01:07.618Z,3.37
2022-11-24T00:03:35.457Z,3.63
2022-11-24T00:06:04.851Z,3.60
2022-11-24T00:08:31.657Z,3.40
2022-11-24T00:11:04.111Z,3.50
2022-11-24T00:13:30.983Z,2.63
2022-11-24T00:16:05.640Z,3.30
2022-11-24T00:18:32.778Z,3.17
2022-11-24T00:20:59.512Z,3.07
2022-11-24T00:23:26.816Z,3.60
2022-11-24T00:25:53.982Z,2.97
2022-11-24T00:28:20.771Z,3.20
2022-11-24T00:30:47.659Z,3.10
2022-11-24T00:33:14.643Z,3.07
2022-11-24T00:35:41.582Z,3.00
2022-11-24T00:38:08.542Z,3.37
2022-11-24T00:40:35.645Z,3.63
2022-11-24T00:43:02.579Z,3.27
2022-11-24T00:45:29.381Z,3.73
2022-11-24T00:47:56.353Z,2.70
2022-11-24T00:50:23.129Z,3.20
2022-11-24T00:52:49.939Z,2.93
2022-11-24T00:55:16.857Z,2.83
2022-11-24T00:57:43.619Z,2.60
2022-11-24T01:00:10.683Z,2.93
2022-11-24T01:02:37.728Z,3.10
2022-11-24T01:05:04.942Z,2.83
2022-11-24T01:07:31.957Z,3.13
2022-11-24T01:09:58.977Z,3.03
2022-11-24T01:12:25.844Z,3.10
2022-11-24T01:14:52.581Z,2.70
2022-11-24T01:17:19.442Z,2.53
2022-11-24T01:19:47.275Z,3.07
2022-11-24T01:22:14.024Z,2.60
2022-11-24T01:24:41.222Z,3.10
2022-11-24T01:27:08.771Z,2.40
2022-11-24T01:29:35.690Z,2.87
2022-11-24T01:32:02.585Z,3.30
2022-11-24T01:34:29.417Z,2.60
2022-11-24T01:36:56.221Z,2.50
2022-11-24T01:39:23.354Z,2.30
2022-11-24T01:41:50.111Z,2.20
2022-11-24T01:44:28.197Z,2.33
2022-11-24T01:47:00.619Z,2.50
2022-11-24T01:49:38.065Z,2.33
2022-11-24T01:52:10.977Z,2.07
2022-11-24T01:54:59.612Z,2.70
2022-11-24T01:57:35.632Z,2.53
2022-11-24T02:00:07.564Z,2.57
2022-11-24T02:02:45.281Z,2.70
2022-11-24T02:05:24.272Z,2.70
2022-11-24T02:07:54.309Z,2.37
2022-11-24T02:10:22.122Z,2.40
2022-11-24T02:12:52.110Z,2.43
2022-11-24T02:15:20.319Z,2.20
2022-11-24T02:17:47.369Z,2.20
2022-11-24T02:20:15.509Z,2.47
2022-11-24T02:22:51.154Z,2.40
2022-11-24T02:25:47.504Z,2.60
2022-11-24T02:28:19.003Z,2.33
2022-11-24T02:30:46.114Z,2.40
2022-11-24T02:33:13.702Z,2.03
2022-11-24T02:35:40.649Z,2.27
2022-11-24T02:38:07.717Z,2.03
2022-11-24T02:40:35.454Z,2.20
2022-11-24T02:43:08.044Z,2.33
2022-11-24T02:45:34.966Z,2.10
2022-11-24T02:48:02.211Z,1.90
2022-11-24T02:50:28.989Z,2.20
2022-11-24T02:52:55.746Z,2.67
2022-11-24T02:55:23.633Z,2.07
2022-11-24T02:57:50.845Z,1.97
2022-11-24T03:00:18.407Z,2.37
2022-11-24T03:02:45.413Z,2.13
2022-11-24T03:05:13.253Z,1.93
2022-11-24T03:07:40.187Z,2.07
2022-11-24T03:10:07.719Z,2.00
2022-11-24T03:12:34.591Z,2.20
2022-11-24T03:15:03.204Z,2.30
2022-11-24T03:17:30.088Z,2.40
2022-11-24T03:20:01.511Z,1.60
2022-11-24T03:22:31.287Z,2.30
2022-11-24T03:24:58.181Z,1.83
2022-11-24T03:27:25.106Z,1.93
2022-11-24T03:29:52.199Z,2.40
2022-11-24T03:32:19.170Z,2.20
2022-11-24T03:34:46.031Z,2.30
2022-11-24T03:37:13.090Z,2.50
2022-11-24T03:39:40.025Z,2.23
2022-11-24T03:42:07.042Z,2.10
2022-11-24T03:44:34.066Z,2.17
2022-11-24T03:47:01.022Z,2.03
2022-11-24T03:49:27.804Z,2.17
2022-11-24T03:51:54.560Z,1.67
2022-11-24T03:54:22.066Z,1.83
2022-11-24T03:56:48.829Z,1.93
2022-11-24T03:59:15.609Z,2.10
2022-11-24T04:01:42.772Z,2.00
2022-11-24T04:04:11.664Z,2.40
2022-11-24T04:06:38.787Z,2.10
2022-11-24T04:09:06.060Z,1.57
2022-11-24T04:11:51.382Z,2.07
2022-11-24T04:14:19.517Z,1.80
2022-11-24T04:16:46.627Z,1.67
2022-11-24T04:19:13.485Z,2.00
2022-11-24T04:21:40.605Z,1.97
2022-11-24T04:24:07.443Z,1.43
2022-11-24T04:26:34.189Z,1.87
2022-11-24T04:29:01.245Z,1.80
2022-11-24T04:31:28.277Z,1.70
2022-11-24T04:33:55.161Z,2.00
2022-11-24T04:36:22.168Z,1.77
2022-11-24T04:39:24.421Z,2.23
2022-11-24T04:41:35.911Z,1.80
2022-11-24T04:44:02.681Z,2.00
2022-11-24T04:46:29.451Z,1.90
2022-11-24T04:48:56.324Z,2.10
2022-11-24T04:51:23.111Z,1.87
2022-11-24T04:53:49.917Z,1.87
2022-11-24T04:56:16.796Z,2.13
2022-11-24T04:58:43.533Z,1.80
2022-11-24T05:01:10.367Z,1.63
2022-11-24T05:03:37.536Z,1.60
2022-11-24T05:06:04.569Z,1.30
2022-11-24T05:08:31.432Z,1.90
2022-11-24T05:11:03.182Z,1.63
2022-11-24T05:13:30.018Z,1.73
2022-11-24T05:15:56.942Z,2.33
2022-11-24T05:18:23.987Z,1.73
2022-11-24T05:20:50.749Z,1.57
2022-11-24T05:23:17.564Z,1.40
2022-11-24T05:25:47.653Z,2.00
2022-11-24T05:28:14.822Z,1.80
2022-11-24T05:30:41.788Z,1.33
2022-11-24T05:33:16.205Z,1.60
2022-11-24T05:35:43.083Z,1.60
2022-11-24T05:38:10.095Z,1.97
2022-11-24T05:40:37.832Z,1.77
2022-11-24T05:43:04.619Z,1.60
2022-11-24T05:45:31.564Z,1.70
2022-11-24T05:48:06.011Z,1.67
2022-11-24T05:50:33.842Z,1.97
2022-11-24T05:53:18.600Z,1.60
2022-11-24T05:55:45.354Z,1.57
2022-11-24T05:58:12.173Z,2.23
2022-11-24T06:00:39.575Z,1.60
2022-11-24T06:03:07.155Z,1.67
2022-11-24T06:05:34.101Z,1.90
2022-11-24T06:08:01.142Z,1.70
2022-11-24T06:10:28.376Z,1.97
2022-11-24T06:12:55.267Z,1.97
2022-11-24T06:15:22.452Z,2.13
2022-11-24T06:17:56.412Z,1.70
2022-11-24T06:20:28.310Z,1.50
2022-11-24T06:22:59.008Z,1.60
2022-11-24T06:25:26.543Z,1.70
2022-11-24T06:27:53.372Z,1.50
2022-11-24T06:30:20.489Z,1.83
2022-11-24T06:32:49.599Z,1.63
2022-11-24T06:35:17.376Z,1.60
2022-11-24T06:37:45.815Z,1.70
2022-11-24T06:40:13.199Z,1.80
2022-11-24T06:42:40.002Z,2.13
2022-11-24T06:45:09.299Z,1.57
2022-11-24T06:47:37.547Z,1.47
2022-11-24T06:50:04.827Z,1.57
2022-11-24T06:52:31.594Z,1.53
2022-11-24T06:54:58.732Z,1.50
2022-11-24T06:57:26.350Z,1.43
2022-11-24T06:59:53.195Z,1.47
2022-11-24T07:02:20.164Z,1.70
2022-11-24T07:04:46.925Z,1.33
2022-11-24T07:07:13.762Z,1.67
2022-11-24T07:09:40.962Z,0.90
2022-11-24T07:12:07.858Z,1.03
2022-11-24T07:14:35.049Z,1.60
2022-11-24T07:17:02.926Z,1.10
2022-11-24T07:19:29.776Z,1.07
2022-11-24T07:21:57.050Z,1.60
2022-11-24T07:24:24.013Z,1.40
2022-11-24T07:26:50.925Z,1.10
2022-11-24T07:29:17.917Z,0.90
2022-11-24T07:31:46.252Z,1.20
2022-11-24T07:34:14.818Z,1.00
2022-11-24T07:36:42.955Z,1.20
2022-11-24T07:39:09.951Z,1.50
2022-11-24T07:41:37.091Z,1.27
2022-11-24T07:44:04.109Z,0.90
2022-11-24T07:46:31.063Z,1.40
2022-11-24T07:48:58.090Z,1.27
2022-11-24T07:51:25.060Z,1.53
2022-11-24T07:53:51.955Z,1.33
2022-11-24T07:56:18.759Z,1.70
2022-11-24T07:58:49.803Z,2.00
2022-11-24T08:01:20.268Z,1.47
2022-11-24T08:03:47.660Z,1.77
2022-11-24T08:06:25.004Z,1.63
2022-11-24T08:08:53.654Z,1.40
2022-11-24T08:11:20.537Z,1.80
2022-11-24T08:13:47.467Z,1.33
2022-11-24T08:16:16.919Z,1.50
2022-11-24T08:18:44.651Z,1.40
2022-11-24T08:21:14.690Z,1.50
2022-11-24T08:23:42.123Z,1.40
2022-11-24T08:26:16.057Z,1.40
2022-11-24T08:28:44.240Z,1.63
2022-11-24T08:31:18.701Z,1.37
2022-11-24T08:33:46.196Z,1.23
2022-11-24T08:36:15.973Z,1.40
2022-11-24T08:38:44.676Z,1.30
2022-11-24T08:41:16.443Z,1.40
2022-11-24T08:43:43.901Z,1.53
2022-11-24T08:46:17.261Z,1.37
2022-11-24T08:48:51.930Z,1.60
2022-11-24T08:51:21.859Z,1.50
2022-11-24T08:53:48.772Z,1.60
2022-11-24T08:56:15.973Z,1.73
2022-11-24T08:58:43.225Z,1.43
2022-11-24T09:01:13.198Z,1.80
2022-11-24T09:03:45.009Z,1.27
2022-11-24T09:06:16.902Z,1.50
2022-11-24T09:08:43.840Z,1.00
2022-11-24T09:11:13.608Z,1.30
2022-11-24T09:13:41.292Z,1.10
2022-11-24T09:16:29.353Z,1.20
2022-11-24T09:18:58.831Z,1.20
2022-11-24T09:21:25.608Z,1.03
2022-11-24T09:23:54.858Z,0.97
2022-11-24T09:26:27.628Z,1.13
2022-11-24T09:28:56.062Z,0.90
2022-11-24T09:31:32.396Z,1.20
2022-11-24T09:33:59.611Z,0.73
2022-11-24T09:36:26.437Z,0.67
2022-11-24T09:38:53.519Z,0.80
2022-11-24T09:41:39.423Z,0.60
2022-11-24T09:44:31.482Z,0.40
2022-11-24T09:47:07.407Z,0.87
2022-11-24T09:50:01.042Z,0.50
2022-11-24T09:52:49.377Z,0.87
2022-11-24T09:55:28.920Z,0.77
2022-11-24T09:58:40.679Z,0.50
2022-11-24T10:01:19.941Z,0.50
2022-11-24T10:03:50.443Z,0.53
2022-11-24T10:06:31.161Z,0.60
2022-11-24T10:09:19.051Z,0.67
2022-11-24T10:11:51.046Z,0.60
2022-11-24T10:14:23.868Z,0.67
2022-11-24T10:16:56.903Z,0.60
2022-11-24T10:19:39.470Z,1.10
2022-11-24T10:22:20.644Z,0.97
2022-11-24T10:25:22.986Z,0.90
2022-11-24T10:27:56.518Z,1.20
2022-11-24T10:30:26.456Z,1.03
2022-11-24T10:32:58.403Z,1.13
2022-11-24T10:35:35.616Z,0.90
2022-11-24T10:38:25.355Z,1.10
2022-11-24T10:40:58.025Z,1.20
2022-11-24T10:43:28.192Z,1.13
2022-11-24T10:46:12.056Z,1.00
2022-11-24T10:48:45.860Z,1.53
2022-11-24T10:51:31.331Z,1.00
2022-11-24T10:54:05.977Z,1.13
2022-11-24T10:56:43.757Z,1.10
2022-11-24T10:59:38.258Z,1.43
2022-11-24T11:02:39.265Z,1.17
2022-11-24T11:05:42.563Z,0.87
2022-11-24T11:08:32.751Z,0.80
2022-11-24T11:11:20.576Z,1.30
2022-11-24T11:13:58.175Z,1.43
2022-11-24T11:16:41.057Z,1.10
2022-11-24T11:19:48.451Z,1.10
2022-11-24T11:22:24.551Z,1.10
2022-11-24T11:25:23.290Z,1.60
2022-11-24T11:27:50.591Z,1.10
2022-11-24T11:36:11.754Z,1.13
2022-11-24T11:38:40.759Z,1.30
2022-11-24T11:41:19.428Z,1.20
2022-11-24T11:43:50.852Z,1.53
2022-11-24T11:46:17.950Z,1.30
2022-11-24T11:48:46.905Z,1.50
2022-11-24T11:51:38.882Z,1.63
2022-11-24T11:54:26.965Z,1.50
2022-11-24T11:57:04.412Z,1.50
2022-11-24T11:59:49.510Z,1.20
2022-11-24T12:02:22.203Z,1.33
2022-11-24T12:05:18.865Z,1.40
2022-11-24T12:08:06.405Z,1.20
2022-11-24T12:10:50.854Z,1.27
2022-11-24T12:13:29.961Z,1.03
2022-11-24T12:16:03.020Z,1.37
2022-11-24T12:18:59.287Z,1.60
2022-11-24T12:21:36.092Z,1.63
2022-11-24T12:24:28.742Z,1.50
2022-11-24T12:27:19.360Z,0.90
2022-11-24T12:30:18.252Z,1.07
2022-11-24T12:33:08.918Z,1.67
2022-11-24T12:35:46.335Z,1.40
2022-11-24T12:38:15.847Z,1.63
2022-11-24T12:40:51.955Z,1.43
2022-11-24T12:43:37.126Z,1.30
2022-11-24T12:46:19.801Z,1.37
2022-11-24T12:48:52.709Z,1.40
2022-11-24T12:51:28.467Z,1.57
2022-11-24T12:53:58.374Z,1.77
2022-11-24T12:56:41.720Z,1.17
2022-11-24T12:59:49.819Z,1.63
2022-11-24T13:02:25.959Z,2.13
2022-11-24T13:05:05.099Z,1.70
2022-11-24T13:07:46.440Z,1.53
2022-11-24T13:10:46.904Z,2.70
2022-11-24T13:13:14.778Z,2.33
2022-11-24T13:18:44.273Z,2.97
2022-11-24T13:21:29.787Z,3.23
2022-11-24T13:24:22.083Z,1.60
2022-11-24T13:27:09.068Z,2.90
2022-11-24T13:29:37.953Z,3.37
2022-11-24T13:32:05.046Z,2.03
2022-11-24T13:34:41.277Z,2.33
2022-11-24T13:37:35.723Z,2.00
2022-11-24T13:40:12.375Z,1.93
2022-11-24T13:42:57.908Z,2.20
2022-11-24T13:45:41.984Z,2.00
2022-11-24T13:48:21.727Z,1.70
2022-11-24T13:50:53.264Z,1.90
2022-11-24T13:53:20.061Z,3.27
2022-11-24T13:56:21.927Z,2.20
2022-11-24T13:59:01.316Z,1.20
2022-11-24T14:01:29.101Z,1.63
2022-11-24T14:04:30.563Z,4.43
2022-11-24T14:07:07.906Z,6.63
2022-11-24T14:09:35.971Z,1.50
2022-11-24T14:12:15.295Z,1.30
2022-11-24T14:14:44.413Z,1.40
2022-11-24T14:17:29.245Z,1.57
2022-11-24T14:19:57.998Z,1.67
2022-11-24T14:22:31.983Z,1.90
2022-11-24T14:25:01.118Z,1.57
2022-11-24T14:27:34.544Z,1.87
2022-11-24T14:30:06.157Z,1.77
2022-11-24T14:32:32.883Z,1.37
2022-11-24T14:34:59.779Z,1.67
2022-11-24T14:37:26.813Z,1.83
2022-11-24T14:39:53.761Z,1.50
2022-11-24T14:42:24.165Z,1.53
2022-11-24T14:44:59.033Z,1.40
2022-11-24T14:47:31.669Z,1.30
2022-11-24T14:50:16.856Z,1.47
2022-11-24T14:52:56.684Z,2.37
2022-11-24T14:55:31.724Z,2.27
2022-11-24T14:58:00.053Z,1.87
2022-11-24T15:00:29.748Z,2.20
2022-11-24T15:03:18.090Z,2.13
2022-11-24T15:05:56.616Z,1.47
2022-11-24T15:08:26.774Z,1.60
2022-11-24T15:11:11.794Z,2.20
2022-11-24T15:13:39.090Z,3.87
2022-11-24T15:16:07.961Z,3.20
2022-11-24T15:18:46.014Z,2.57
2022-11-24T15:21:18.834Z,3.33
2022-11-24T15:24:24.960Z,2.77
2022-11-24T15:27:00.183Z,1.77
2022-11-24T15:29:27.266Z,2.20
2022-11-24T15:31:54.113Z,1.40
2022-11-24T15:34:20.999Z,1.87
2022-11-24T15:36:48.005Z,1.87
2022-11-24T15:39:14.819Z,2.27
2022-11-24T15:41:42.342Z,2.40
2022-11-24T15:44:10.349Z,3.40
2022-11-24T15:46:40.138Z,2.20
2022-11-24T15:49:07.269Z,2.00
2022-11-24T15:51:35.768Z,1.97
2022-11-24T15:54:02.751Z,2.10
2022-11-24T15:56:32.902Z,2.13
2022-11-24T15:59:00.525Z,1.90
2022-11-24T16:01:33.966Z,2.50
2022-11-24T16:04:02.075Z,1.90
2022-11-24T16:06:29.037Z,2.63
2022-11-24T16:08:57.723Z,2.97
2022-11-24T16:11:24.842Z,2.77
2022-11-24T16:13:53.752Z,2.57
2022-11-24T16:16:23.588Z,2.70
2022-11-24T16:18:50.826Z,4.10
2022-11-24T16:21:17.716Z,3.93
2022-11-24T16:23:45.598Z,3.80
2022-11-24T16:26:12.618Z,3.97
2022-11-24T16:28:39.375Z,4.40
2022-11-24T16:31:06.649Z,4.60
2022-11-24T16:33:33.620Z,4.40
2022-11-24T16:36:00.428Z,5.17
2022-11-24T16:38:27.261Z,3.70
2022-11-24T16:40:56.448Z,4.00
2022-11-24T16:43:24.599Z,4.00
2022-11-24T16:46:17.803Z,2.47
2022-11-24T16:48:46.480Z,2.47
2022-11-24T16:51:13.971Z,3.30
2022-11-24T16:53:41.527Z,3.37
2022-11-24T16:56:09.269Z,3.20
2022-11-24T16:58:40.992Z,2.67
2022-11-24T17:01:10.953Z,3.43
2022-11-24T17:03:38.536Z,2.70
2022-11-24T17:06:07.936Z,2.23
2022-11-24T17:08:36.198Z,2.73
2022-11-24T17:11:06.944Z,2.97
2022-11-24T17:13:34.084Z,3.37
2022-11-24T17:16:09.742Z,3.20
2022-11-24T17:18:37.093Z,3.30
2022-11-24T17:21:09.565Z,2.83
2022-11-24T17:23:37.756Z,3.53
2022-11-24T17:26:07.071Z,3.83
2022-11-24T17:28:35.441Z,5.30
2022-11-24T17:31:18.049Z,3.50
2022-11-24T17:33:44.969Z,2.67
2022-11-24T17:36:11.741Z,3.83
2022-11-24T17:38:38.731Z,3.20
2022-11-24T17:41:06.007Z,3.33
2022-11-24T17:43:33.106Z,2.50
2022-11-24T17:46:02.289Z,3.60
2022-11-24T17:48:30.605Z,2.70
2022-11-24T17:51:10.229Z,3.07
2022-11-24T17:53:37.521Z,2.50
2022-11-24T17:56:04.657Z,3.53
2022-11-24T17:58:33.124Z,3.30
2022-11-24T18:01:00.936Z,2.20
2022-11-24T18:03:28.954Z,2.30
2022-11-24T18:05:56.324Z,2.27
2022-11-24T18:08:24.103Z,2.57
2022-11-24T18:10:50.920Z,2.23
2022-11-24T18:13:40.730Z,3.37
2022-11-24T18:16:08.378Z,3.33
2022-11-24T18:18:40.110Z,3.30
2022-11-24T18:21:11.710Z,3.07
2022-11-24T18:23:38.696Z,3.10
2022-11-24T18:26:06.604Z,3.20
2022-11-24T18:28:35.424Z,3.07
2022-11-24T18:31:08.056Z,2.53
2022-11-24T18:33:39.827Z,2.77
2022-11-24T18:36:07.933Z,2.60
2022-11-24T18:38:37.064Z,2.47
2022-11-24T18:41:05.774Z,2.10
2022-11-24T18:43:35.842Z,2.77
2022-11-24T18:46:12.542Z,1.93
2022-11-24T18:48:39.480Z,3.43
2022-11-24T18:51:08.404Z,2.50
2022-11-24T18:53:35.637Z,2.50
2022-11-24T18:56:07.491Z,2.60
2022-11-24T18:58:35.775Z,3.10
2022-11-24T19:01:20.889Z,4.77
2022-11-24T19:03:53.531Z,2.67
2022-11-24T19:06:32.633Z,3.93
2022-11-24T19:09:02.580Z,4.17
2022-11-24T19:11:35.782Z,3.37
2022-11-24T19:14:04.977Z,3.37
2022-11-24T19:16:32.452Z,3.40
2022-11-24T19:19:00.315Z,2.60
2022-11-24T19:21:29.950Z,2.43
2022-11-24T19:24:02.923Z,2.93
2022-11-24T19:26:31.909Z,2.30
2022-11-24T19:29:00.726Z,2.23
2022-11-24T19:31:27.608Z,2.30
2022-11-24T19:33:55.481Z,2.33
2022-11-24T19:36:22.815Z,2.10
2022-11-24T19:38:51.849Z,2.43
2022-11-24T19:41:20.340Z,2.23
2022-11-24T19:43:48.306Z,2.07
2022-11-24T19:46:18.071Z,1.90
2022-11-24T19:48:47.303Z,2.77
2022-11-24T19:51:19.253Z,2.53
2022-11-24T19:53:46.909Z,2.07
2022-11-24T19:56:19.491Z,2.73
2022-11-24T19:58:47.565Z,2.80
2022-11-24T20:01:20.026Z,2.60
2022-11-24T20:03:53.536Z,2.67
2022-11-24T20:06:20.774Z,2.53
2022-11-24T20:08:47.640Z,2.90
2022-11-24T20:11:19.516Z,2.40
2022-11-24T20:13:48.611Z,2.73
2022-11-24T20:16:26.894Z,3.57
2022-11-24T20:18:56.496Z,2.87
2022-11-24T20:21:25.842Z,3.00
2022-11-24T20:24:01.351Z,2.33
2022-11-24T20:26:34.510Z,2.77
2022-11-24T20:29:02.759Z,2.43
2022-11-24T20:31:42.089Z,2.50
2022-11-24T20:34:10.105Z,2.73
2022-11-24T20:36:40.655Z,2.63
2022-11-24T20:39:12.193Z,2.87
2022-11-24T20:41:40.194Z,2.57
2022-11-24T20:44:10.598Z,2.67
2022-11-24T20:46:39.951Z,2.10
2022-11-24T20:49:08.548Z,2.40
2022-11-24T20:51:39.115Z,3.33
2022-11-24T20:54:08.258Z,1.80
2022-11-24T20:56:39.860Z,2.63
2022-11-24T20:59:07.837Z,2.57
2022-11-24T21:01:38.911Z,2.50
2022-11-24T21:04:08.409Z,2.47
2022-11-24T21:06:36.038Z,2.43
2022-11-24T21:09:04.470Z,2.90
2022-11-24T21:11:32.420Z,2.63
2022-11-24T21:14:00.361Z,2.60
2022-11-24T21:16:29.644Z,2.67
2022-11-24T21:19:01.544Z,2.40
2022-11-24T21:21:34.693Z,2.57
2022-11-24T21:24:06.352Z,1.97
2022-11-24T21:26:38.108Z,2.43
2022-11-24T21:29:05.805Z,2.00
2022-11-24T21:31:36.870Z,2.57
2022-11-24T21:34:05.131Z,2.83
2022-11-24T21:36:34.882Z,2.63
2022-11-24T21:39:03.471Z,2.10
2022-11-24T21:41:33.269Z,2.53
2022-11-24T21:44:00.470Z,2.70
2022-11-24T21:46:29.795Z,2.10
2022-11-24T21:48:56.555Z,1.67
2022-11-24T21:51:23.371Z,2.30
2022-11-24T21:53:50.275Z,2.13
2022-11-24T21:56:19.724Z,1.97
2022-11-24T21:58:48.894Z,2.13
2022-11-24T22:01:17.832Z,2.53
2022-11-24T22:03:45.793Z,2.20
2022-11-24T22:06:13.429Z,1.70
2022-11-24T22:08:40.597Z,1.83
2022-11-24T22:11:11.739Z,2.07
2022-11-24T22:13:39.035Z,1.70
2022-11-24T22:16:07.356Z,2.30
2022-11-24T22:18:39.718Z,2.63
2022-11-24T22:21:08.202Z,2.23
2022-11-24T22:23:36.087Z,2.70
2022-11-24T22:26:07.144Z,2.13
2022-11-24T22:28:57.357Z,2.43
2022-11-24T22:31:29.277Z,3.63
2022-11-24T22:33:57.201Z,4.07
2022-11-24T22:36:26.391Z,3.23
2022-11-24T22:39:04.411Z,3.70
2022-11-24T22:41:33.525Z,4.80
2022-11-24T22:44:00.409Z,2.23
2022-11-24T22:46:29.881Z,2.87
2022-11-24T22:48:59.156Z,3.13
2022-11-24T22:51:34.242Z,2.77
2022-11-24T22:54:02.912Z,2.87
2022-11-24T22:56:32.458Z,2.70
2022-11-24T22:59:01.406Z,3.13
2022-11-24T23:01:29.775Z,2.63
2022-11-24T23:03:56.727Z,2.53
2022-11-24T23:06:26.400Z,2.30
2022-11-24T23:08:53.996Z,2.20
2022-11-24T23:11:29.745Z,2.40
2022-11-24T23:14:02.378Z,2.40
2022-11-24T23:16:29.746Z,2.30
2022-11-24T23:18:56.859Z,2.30
2022-11-24T23:21:29.077Z,2.17
2022-11-24T23:23:58.313Z,2.17
2022-11-24T23:26:30.264Z,2.83
2022-11-24T23:28:57.174Z,1.90
2022-11-24T23:31:29.104Z,2.33
2022-11-24T23:33:58.423Z,2.17
2022-11-24T23:36:26.109Z,2.00
2022-11-24T23:38:53.341Z,2.33
2022-11-24T23:41:23.113Z,2.03
2022-11-24T23:43:50.756Z,1.70
2022-11-24T23:46:23.135Z,1.80
2022-11-24T23:48:52.333Z,1.63
2022-11-24T23:51:24.877Z,1.57
2022-11-24T23:53:52.417Z,1.90
2022-11-24T23:56:27.847Z,1.67
2022-11-24T23:58:54.731Z,1.77
